createdAt,value
2023-03-15T00:01:47.191Z,1.13
2023-03-15T00:04:48.914Z,0.70
2023-03-15T00:07:50.616Z,0.90
2023-03-15T00:10:52.857Z,0.93
2023-03-15T00:13:54.591Z,0.80
2023-03-15T00:16:56.305Z,0.73
2023-03-15T00:19:57.978Z,1.10
2023-03-15T00:22:59.672Z,1.33
2023-03-15T00:26:01.451Z,1.13
2023-03-15T00:35:58.625Z,1.00
2023-03-15T00:39:00.694Z,0.83
2023-03-15T00:42:03.894Z,0.87
2023-03-15T00:45:06.696Z,1.30
2023-03-15T00:48:08.932Z,1.20
2023-03-15T00:51:13.403Z,0.97
2023-03-15T00:54:15.077Z,1.00
2023-03-15T00:57:16.754Z,0.60
2023-03-15T01:00:24.224Z,1.23
2023-03-15T01:03:27.587Z,0.90
2023-03-15T01:06:29.751Z,1.40
2023-03-15T01:09:33.819Z,0.97
2023-03-15T01:12:35.598Z,1.20
2023-03-15T01:15:37.370Z,1.97
2023-03-15T01:22:16.301Z,1.90
2023-03-15T01:25:18.038Z,2.53
2023-03-15T01:31:58.347Z,2.17
2023-03-15T01:41:55.284Z,2.33
2023-03-15T01:45:02.848Z,1.87
2023-03-15T01:48:04.998Z,2.47
2023-03-15T01:51:30.306Z,2.07
2023-03-15T01:54:38.869Z,2.03
2023-03-15T01:57:49.745Z,1.60
2023-03-15T02:00:53.022Z,2.30
2023-03-15T02:04:01.602Z,2.00
2023-03-15T02:07:09.106Z,1.70
2023-03-15T02:10:17.309Z,1.70
2023-03-15T02:13:23.384Z,2.00
2023-03-15T02:16:26.049Z,1.93
2023-03-15T02:20:05.118Z,1.97
2023-03-15T02:23:11.587Z,2.10
2023-03-15T02:26:13.708Z,2.10
2023-03-15T02:29:15.749Z,2.57
2023-03-15T02:32:17.706Z,3.13
2023-03-15T02:35:28.759Z,2.87
2023-03-15T02:38:31.124Z,3.00
2023-03-15T02:41:36.660Z,2.57
2023-03-15T02:44:41.363Z,3.17
2023-03-15T02:47:44.827Z,3.10
2023-03-15T02:50:46.774Z,2.47
2023-03-15T02:53:50.177Z,2.93
2023-03-15T02:56:52.127Z,2.80
2023-03-15T02:59:55.322Z,2.97
2023-03-15T03:02:57.750Z,2.60
2023-03-15T03:06:00.384Z,3.03
2023-03-15T03:09:04.466Z,2.40
2023-03-15T03:12:07.228Z,2.83
2023-03-15T03:15:10.385Z,2.90
2023-03-15T03:18:12.749Z,2.77
2023-03-15T03:21:14.820Z,3.00
2023-03-15T03:24:18.525Z,2.60
2023-03-15T03:27:21.436Z,2.30
2023-03-15T03:30:25.246Z,2.37
2023-03-15T03:33:27.613Z,2.13
2023-03-15T03:36:29.456Z,2.67
2023-03-15T03:39:35.470Z,1.97
2023-03-15T03:42:37.314Z,2.27
2023-03-15T03:45:40.539Z,2.17
2023-03-15T03:48:44.801Z,2.17
2023-03-15T03:51:46.606Z,2.23
2023-03-15T03:54:48.547Z,2.53
2023-03-15T03:57:51.377Z,2.50
2023-03-15T04:01:08.174Z,2.03
2023-03-15T04:04:14.259Z,2.33
2023-03-15T04:07:17.185Z,2.37
2023-03-15T04:10:26.663Z,1.73
2023-03-15T04:13:28.631Z,2.50
2023-03-15T04:16:33.505Z,2.87
2023-03-15T04:19:38.643Z,2.30
2023-03-15T04:22:49.741Z,2.57
2023-03-15T04:26:06.120Z,2.53
2023-03-15T04:29:19.196Z,2.80
2023-03-15T04:32:31.597Z,3.13
2023-03-15T04:35:47.348Z,2.73
2023-03-15T04:39:10.081Z,2.67
2023-03-15T04:42:42.564Z,2.77
2023-03-15T04:46:08.047Z,2.53
2023-03-15T04:49:35.341Z,2.40
2023-03-15T04:53:09.272Z,3.03
2023-03-15T04:56:28.451Z,2.63
2023-03-15T04:59:45.536Z,3.07
2023-03-15T05:03:05.956Z,2.57
2023-03-15T05:06:20.089Z,2.93
2023-03-15T05:09:39.838Z,2.60
2023-03-15T05:13:05.140Z,2.87
2023-03-15T05:16:18.289Z,4.30
2023-03-15T05:19:36.366Z,3.87
2023-03-15T05:22:56.659Z,2.57
2023-03-15T05:26:16.020Z,3.13
2023-03-15T05:29:47.731Z,3.17
2023-03-15T05:32:59.025Z,3.00
2023-03-15T05:36:16.257Z,3.07
2023-03-15T05:39:36.834Z,3.50
2023-03-15T05:42:50.379Z,4.10
2023-03-15T05:46:11.635Z,3.33
2023-03-15T05:49:32.149Z,2.67
2023-03-15T05:52:57.554Z,3.27
2023-03-15T05:56:14.656Z,2.87
2023-03-15T05:59:35.362Z,2.90
2023-03-15T06:02:56.453Z,3.27
2023-03-15T06:06:19.746Z,4.67
2023-03-15T06:09:21.996Z,4.07
2023-03-15T06:12:26.849Z,3.70
2023-03-15T06:15:29.113Z,3.37
2023-03-15T06:18:31.610Z,3.50
2023-03-15T06:21:34.214Z,3.50
2023-03-15T06:24:37.868Z,3.10
2023-03-15T06:27:39.816Z,3.67
2023-03-15T06:30:42.042Z,3.93
2023-03-15T06:33:44.087Z,4.13
2023-03-15T06:36:47.366Z,4.73
2023-03-15T06:39:51.013Z,3.97
2023-03-15T06:42:52.994Z,3.83
2023-03-15T06:45:56.762Z,7.33
2023-03-15T06:48:59.077Z,6.40
2023-03-15T06:52:01.970Z,4.67
2023-03-15T06:55:04.358Z,4.43
2023-03-15T06:58:07.615Z,4.00
2023-03-15T07:01:13.587Z,4.73
2023-03-15T07:04:17.140Z,3.20
2023-03-15T07:07:18.882Z,4.80
2023-03-15T07:10:21.491Z,4.03
2023-03-15T07:13:23.999Z,4.67
2023-03-15T07:16:26.324Z,3.07
2023-03-15T07:19:28.039Z,3.77
2023-03-15T07:22:29.714Z,3.70
2023-03-15T07:25:31.451Z,3.27
2023-03-15T07:28:33.153Z,3.47
2023-03-15T07:49:36.864Z,3.13
2023-03-15T07:52:43.867Z,3.37
2023-03-15T07:55:47.995Z,3.37
2023-03-15T07:58:53.058Z,3.67
2023-03-15T08:01:55.829Z,3.47
2023-03-15T08:05:06.062Z,2.77
2023-03-15T08:08:09.251Z,2.90
2023-03-15T08:11:12.051Z,3.43
2023-03-15T08:14:17.040Z,3.53
2023-03-15T08:17:24.215Z,2.67
2023-03-15T08:20:34.286Z,2.67
2023-03-15T08:23:41.766Z,3.13
2023-03-15T08:26:45.163Z,3.23
2023-03-15T08:29:57.055Z,2.57
2023-03-15T08:33:04.377Z,3.10
2023-03-15T08:36:07.710Z,2.93
2023-03-15T08:39:10.067Z,3.20
2023-03-15T08:42:18.651Z,3.20
2023-03-15T08:48:42.612Z,2.70
2023-03-15T08:51:59.294Z,2.57
2023-03-15T08:55:10.042Z,2.43
2023-03-15T08:58:32.952Z,2.43
2023-03-15T09:01:44.910Z,3.47
2023-03-15T09:05:00.543Z,2.80
2023-03-15T09:08:02.501Z,2.57
2023-03-15T09:11:29.356Z,1.83
2023-03-15T09:14:33.108Z,1.87
2023-03-15T09:17:37.341Z,1.93
2023-03-15T09:20:39.872Z,1.93
2023-03-15T09:23:41.786Z,2.37
2023-03-15T09:26:55.999Z,2.60
2023-03-15T09:29:57.913Z,2.60
2023-03-15T09:33:04.077Z,1.97
2023-03-15T09:36:06.323Z,1.97
2023-03-15T09:39:12.655Z,1.57
2023-03-15T09:42:23.029Z,1.90
2023-03-15T09:46:13.531Z,2.03
2023-03-15T09:49:52.135Z,1.80
2023-03-15T09:53:29.434Z,1.90
2023-03-15T09:56:49.147Z,2.20
2023-03-15T09:59:57.910Z,1.87
2023-03-15T10:03:10.214Z,1.47
2023-03-15T10:06:29.473Z,1.33
2023-03-15T10:09:33.845Z,1.60
2023-03-15T10:12:42.822Z,2.23
2023-03-15T10:15:54.831Z,1.80
2023-03-15T10:19:27.982Z,1.33
2023-03-15T10:23:02.244Z,1.23
2023-03-15T10:26:12.666Z,0.80
2023-03-15T10:33:03.038Z,1.10
2023-03-15T10:36:26.239Z,1.07
2023-03-15T10:39:30.890Z,1.07
2023-03-15T10:42:41.107Z,1.70
2023-03-15T10:45:53.245Z,0.80
2023-03-15T10:49:13.218Z,0.97
2023-03-15T10:52:35.841Z,1.40
2023-03-15T10:56:05.488Z,1.00
2023-03-15T10:59:25.041Z,1.17
2023-03-15T11:02:27.317Z,1.10
2023-03-15T11:05:57.708Z,1.10
2023-03-15T11:10:07.302Z,1.03
2023-03-15T11:13:24.044Z,0.93
2023-03-15T11:16:26.438Z,1.10
2023-03-15T11:23:34.649Z,1.10
2023-03-15T11:26:51.839Z,1.10
2023-03-15T11:33:44.249Z,1.00
2023-03-15T11:37:05.354Z,0.80
2023-03-15T11:40:42.025Z,1.03
2023-03-15T11:44:06.814Z,0.60
2023-03-15T11:47:25.545Z,0.63
2023-03-15T11:50:33.086Z,0.87
2023-03-15T11:53:46.083Z,0.70
2023-03-15T11:57:13.336Z,0.60
2023-03-15T12:00:35.269Z,0.97
2023-03-15T12:03:45.078Z,0.60
2023-03-15T12:06:47.345Z,0.60
2023-03-15T12:09:58.241Z,0.50
2023-03-15T12:13:16.442Z,0.97
2023-03-15T12:16:25.777Z,0.60
2023-03-15T12:19:28.398Z,0.63
2023-03-15T12:22:34.216Z,0.73
2023-03-15T12:25:52.759Z,0.70
2023-03-15T12:29:19.415Z,0.90
2023-03-15T12:32:24.637Z,0.80
2023-03-15T12:35:33.932Z,0.83
2023-03-15T12:39:21.421Z,0.80
2023-03-15T12:42:32.389Z,0.53
2023-03-15T12:45:46.868Z,0.50
2023-03-15T12:49:26.336Z,0.70
2023-03-15T12:52:53.906Z,0.40
2023-03-15T12:56:08.525Z,0.60
2023-03-15T12:59:31.081Z,0.40
2023-03-15T13:02:45.876Z,0.70
2023-03-15T13:06:08.861Z,0.70
2023-03-15T13:09:42.483Z,0.30
2023-03-15T13:13:09.290Z,0.67
2023-03-15T13:16:34.128Z,0.50
2023-03-15T13:19:45.090Z,0.53
2023-03-15T13:23:27.916Z,0.60
2023-03-15T13:27:01.943Z,0.50
2023-03-15T13:30:38.384Z,0.50
2023-03-15T13:33:48.531Z,0.47
2023-03-15T13:37:38.014Z,0.60
2023-03-15T13:41:32.102Z,0.50
2023-03-15T13:44:35.138Z,0.60
2023-03-15T13:51:32.694Z,0.50
2023-03-15T13:54:44.244Z,0.53
2023-03-15T13:58:09.849Z,0.47
2023-03-15T14:01:19.976Z,0.40
2023-03-15T14:04:29.685Z,0.40
2023-03-15T14:07:45.192Z,0.57
2023-03-15T14:11:24.042Z,0.50
2023-03-15T14:18:11.214Z,0.60
2023-03-15T14:21:21.569Z,0.50
2023-03-15T14:28:26.964Z,0.77
2023-03-15T14:31:35.746Z,0.50
2023-03-15T14:34:55.816Z,0.70
2023-03-15T14:38:29.517Z,0.80
2023-03-15T14:41:38.792Z,0.50
2023-03-15T14:44:45.160Z,0.60
2023-03-15T14:48:05.053Z,0.40
2023-03-15T14:51:16.513Z,0.60
2023-03-15T14:54:24.837Z,0.43
2023-03-15T14:57:40.385Z,0.50
2023-03-15T15:01:15.256Z,0.57
2023-03-15T15:04:39.817Z,0.70
2023-03-15T15:07:42.366Z,0.50
2023-03-15T15:10:54.768Z,0.80
2023-03-15T15:14:01.154Z,0.60
2023-03-15T15:17:08.162Z,0.80
2023-03-15T15:20:28.677Z,0.40
2023-03-15T15:23:54.915Z,0.50
2023-03-15T15:27:40.443Z,0.68
2023-03-15T15:31:19.351Z,0.73
2023-03-15T15:34:41.238Z,1.20
2023-03-15T15:38:02.210Z,0.63
2023-03-15T15:41:04.629Z,0.40
2023-03-15T15:44:23.983Z,0.40
2023-03-15T15:51:21.148Z,0.50
2023-03-15T15:54:26.601Z,0.50
2023-03-15T15:57:28.719Z,0.38
2023-03-15T16:00:30.998Z,0.57
2023-03-15T16:03:32.948Z,0.40
2023-03-15T16:06:36.251Z,0.50
2023-03-15T16:09:40.025Z,0.60
2023-03-15T16:12:41.834Z,0.53
2023-03-15T16:15:43.731Z,1.03
2023-03-15T16:18:45.838Z,0.60
2023-03-15T16:21:51.617Z,0.50
2023-03-15T16:24:56.893Z,0.60
2023-03-15T16:28:01.966Z,0.70
2023-03-15T16:31:03.750Z,0.63
2023-03-15T16:34:13.137Z,0.70
2023-03-15T16:37:17.944Z,0.70
2023-03-15T16:40:26.838Z,0.70
2023-03-15T16:43:28.831Z,0.60
2023-03-15T16:46:30.616Z,0.60
2023-03-15T16:49:32.439Z,0.53
2023-03-15T16:52:34.248Z,0.80
2023-03-15T16:55:36.470Z,0.53
2023-03-15T16:58:38.403Z,0.97
2023-03-15T17:01:40.247Z,0.90
2023-03-15T17:04:42.182Z,0.53
2023-03-15T17:07:44.051Z,0.73
2023-03-15T17:10:46.240Z,0.50
2023-03-15T17:13:48.073Z,0.70
2023-03-15T17:16:49.776Z,0.80
2023-03-15T17:19:52.675Z,0.63
2023-03-15T17:22:59.065Z,0.70
2023-03-15T17:26:00.876Z,0.50
2023-03-15T17:29:04.489Z,0.57
2023-03-15T17:32:11.844Z,0.90
2023-03-15T17:35:15.998Z,0.80
2023-03-15T17:38:21.713Z,0.83
2023-03-15T17:41:33.309Z,0.60
2023-03-15T17:44:35.039Z,1.00
2023-03-15T17:47:36.740Z,1.20
2023-03-15T17:50:39.880Z,1.87
2023-03-15T17:53:41.571Z,2.07
2023-03-15T17:56:43.718Z,3.93
2023-03-15T17:59:45.578Z,3.60
2023-03-15T18:02:55.035Z,2.43
2023-03-15T18:05:57.642Z,1.30
2023-03-15T18:08:59.378Z,0.70
2023-03-15T18:12:02.117Z,0.70
2023-03-15T18:15:05.117Z,0.70
2023-03-15T18:18:06.924Z,0.40
2023-03-15T18:21:19.525Z,0.80
2023-03-15T18:24:21.241Z,0.60
2023-03-15T18:27:22.982Z,0.77
2023-03-15T18:30:27.802Z,1.97
2023-03-15T18:33:31.382Z,1.00
2023-03-15T18:36:33.143Z,0.73
2023-03-15T18:39:34.815Z,0.60
2023-03-15T18:42:36.676Z,0.40
2023-03-15T18:45:38.470Z,0.60
2023-03-15T18:48:41.252Z,0.57
2023-03-15T18:51:43.052Z,0.37
2023-03-15T18:54:44.762Z,0.50
2023-03-15T18:57:46.597Z,0.50
2023-03-15T19:00:49.032Z,0.80
2023-03-15T19:03:52.243Z,0.80
2023-03-15T19:06:53.935Z,0.80
2023-03-15T19:09:55.678Z,0.90
2023-03-15T19:12:57.452Z,1.03
2023-03-15T19:15:59.169Z,1.37
2023-03-15T19:19:01.218Z,1.97
2023-03-15T19:22:02.970Z,1.80
2023-03-15T19:25:05.913Z,1.30
2023-03-15T19:28:07.669Z,1.97
2023-03-15T19:31:10.035Z,1.63
2023-03-15T19:34:11.903Z,2.03
2023-03-15T19:37:13.693Z,3.10
2023-03-15T19:40:16.540Z,3.40
2023-03-15T19:43:19.808Z,1.67
2023-03-15T19:46:21.816Z,3.27
2023-03-15T19:49:24.174Z,3.57
2023-03-15T19:52:27.799Z,4.53
2023-03-15T19:55:31.575Z,3.60
2023-03-15T19:58:33.648Z,3.63
2023-03-15T20:01:35.459Z,3.73
2023-03-15T20:04:37.418Z,3.37
2023-03-15T20:07:39.233Z,4.33
2023-03-15T20:10:40.978Z,3.43
2023-03-15T20:13:42.800Z,4.20
2023-03-15T20:16:44.958Z,4.40
2023-03-15T20:19:47.138Z,3.53
2023-03-15T20:22:48.879Z,3.73
2023-03-15T20:25:50.792Z,4.73
2023-03-15T20:28:52.762Z,2.87
2023-03-15T20:31:54.655Z,2.40
2023-03-15T20:35:00.596Z,2.80
2023-03-15T20:38:06.833Z,3.63
2023-03-15T20:41:08.585Z,2.50
2023-03-15T20:44:10.444Z,3.43
2023-03-15T20:47:12.160Z,3.13
2023-03-15T20:50:13.873Z,3.77
2023-03-15T20:53:15.580Z,4.17
2023-03-15T20:56:18.159Z,3.27
2023-03-15T20:59:19.958Z,4.90
2023-03-15T21:17:10.868Z,5.47
2023-03-15T21:20:21.704Z,4.43
2023-03-15T21:23:28.441Z,4.57
2023-03-15T21:26:30.820Z,4.03
2023-03-15T21:29:40.225Z,4.20
2023-03-15T21:32:52.669Z,3.77
2023-03-15T21:46:27.935Z,3.80
2023-03-15T21:56:40.915Z,2.83
2023-03-15T21:59:42.632Z,2.93
2023-03-15T22:02:44.684Z,3.67
2023-03-15T22:12:49.448Z,3.07
2023-03-15T22:15:52.160Z,2.70
2023-03-15T22:18:53.894Z,2.67
2023-03-15T22:21:57.334Z,2.43
2023-03-15T22:24:59.563Z,2.23
2023-03-15T22:28:01.942Z,2.60
2023-03-15T22:31:03.753Z,2.80
2023-03-15T22:37:25.632Z,3.40
2023-03-15T22:40:28.389Z,2.97
2023-03-15T22:43:30.432Z,3.23
2023-03-15T22:46:34.866Z,4.27
2023-03-15T22:49:37.054Z,2.50
2023-03-15T22:52:39.024Z,1.93
2023-03-15T22:55:40.878Z,2.30
2023-03-15T22:58:43.088Z,2.80
2023-03-15T23:01:44.873Z,2.47
2023-03-15T23:04:46.845Z,2.90
2023-03-15T23:07:48.634Z,2.37
2023-03-15T23:14:21.649Z,1.73
2023-03-15T23:17:23.421Z,2.60
2023-03-15T23:20:25.838Z,2.57
2023-03-15T23:23:27.822Z,3.27
2023-03-15T23:26:29.516Z,2.13
2023-03-15T23:29:40.619Z,2.50
2023-03-15T23:36:09.350Z,2.90
2023-03-15T23:39:11.310Z,2.90
2023-03-15T23:42:13.767Z,2.03
2023-03-15T23:45:15.744Z,1.90
2023-03-15T23:48:17.392Z,2.20
2023-03-15T23:51:19.973Z,2.00
2023-03-15T23:54:22.315Z,2.40
2023-03-15T23:57:24.033Z,2.63
